Terminal Aerodrome Forecast
Issued by NWS Charleston, WV

Current Version | Previous Version | Graphics & Text | Print | Product List | Glossary On
Versions: 1 2 3 4 5 6 7 8 9 10 11 12 13 14 15 16 17 18 19 20 21 22 23
451
FTUS41 KRLX 282043 AAA
TAFEKN
TAF AMD
KEKN 282043Z 2821/2918 26005KT 4SM SHRA VCTS BKN030CB
      TEMPO 2821/2822 25018G32KT +TSRA
     FM290000 00000KT 5SM -SHRA BR OVC023
     FM290600 00000KT 2SM BR OVC010
     FM291300 26004KT 3SM BR OVC010
     FM291500 28005KT 5SM HZ BKN015=

USA.gov is the U.S. government's official web portal to all federal, state and local government web resources and services.